createdAt,value
2023-03-15T00:00:40.806Z,3.29
2023-03-15T00:01:40.840Z,3.32
2023-03-15T00:02:40.867Z,3.33
2023-03-15T00:03:40.921Z,3.29
2023-03-15T00:04:40.880Z,3.42
2023-03-15T00:05:40.895Z,3.40
2023-03-15T00:06:40.943Z,3.54
2023-03-15T00:07:40.926Z,3.52
2023-03-15T00:08:40.950Z,3.62
2023-03-15T00:09:40.978Z,3.52
2023-03-15T00:10:40.976Z,3.60
2023-03-15T00:11:40.991Z,3.61
2023-03-15T00:12:41.016Z,3.72
2023-03-15T00:13:41.029Z,3.65
2023-03-15T00:14:41.051Z,3.79
2023-03-15T00:15:41.104Z,3.75
2023-03-15T00:16:41.080Z,3.83
2023-03-15T00:17:41.096Z,3.84
2023-03-15T00:18:41.118Z,3.88
2023-03-15T00:19:41.193Z,3.86
2023-03-15T00:20:41.149Z,3.90
2023-03-15T00:21:41.171Z,3.91
2023-03-15T00:22:41.182Z,3.94
2023-03-15T00:23:41.203Z,3.97
2023-03-15T00:24:41.221Z,3.97
2023-03-15T00:25:41.234Z,4.02
2023-03-15T00:26:41.262Z,3.97
2023-03-15T00:27:41.271Z,4.02
2023-03-15T00:28:41.294Z,4.00
2023-03-15T00:29:41.307Z,3.98
2023-03-15T00:30:41.327Z,4.09
2023-03-15T00:31:41.350Z,4.09
2023-03-15T00:32:41.398Z,4.09
2023-03-15T00:33:41.382Z,4.14
2023-03-15T00:34:41.400Z,4.18
2023-03-15T00:35:41.461Z,4.06
2023-03-15T00:36:41.434Z,4.22
2023-03-15T00:37:41.458Z,4.20
2023-03-15T00:38:41.471Z,4.18
2023-03-15T00:39:41.494Z,4.29
2023-03-15T00:40:41.524Z,4.30
2023-03-15T00:41:41.531Z,4.29
2023-03-15T00:42:41.551Z,4.27
2023-03-15T00:43:41.566Z,4.27
2023-03-15T00:44:41.576Z,4.33
2023-03-15T00:45:41.596Z,4.29
2023-03-15T00:46:41.674Z,4.32
2023-03-15T00:47:41.637Z,4.37
2023-03-15T00:48:41.653Z,4.37
2023-03-15T00:49:41.672Z,4.45
2023-03-15T00:50:41.686Z,4.47
2023-03-15T00:51:41.704Z,4.44
2023-03-15T00:52:41.720Z,4.44
2023-03-15T00:53:41.744Z,4.41
2023-03-15T00:54:41.778Z,4.54
2023-03-15T00:55:41.773Z,4.52
2023-03-15T00:56:41.793Z,4.42
2023-03-15T00:57:41.810Z,4.44
2023-03-15T00:58:41.839Z,4.37
2023-03-15T00:59:41.844Z,4.40
2023-03-15T01:00:41.864Z,4.51
2023-03-15T01:01:41.914Z,4.47
2023-03-15T01:02:41.968Z,4.41
2023-03-15T01:03:41.933Z,4.48
2023-03-15T01:04:41.935Z,4.45
2023-03-15T01:05:41.948Z,4.52
2023-03-15T01:06:41.988Z,4.45
2023-03-15T01:07:41.996Z,4.48
2023-03-15T01:08:42.007Z,4.52
2023-03-15T01:09:42.068Z,4.45
2023-03-15T01:10:42.050Z,4.48
2023-03-15T01:11:42.073Z,4.50
2023-03-15T01:12:42.081Z,4.45
2023-03-15T01:13:42.103Z,4.48
2023-03-15T01:14:42.116Z,4.45
2023-03-15T01:15:42.159Z,4.44
2023-03-15T01:16:42.152Z,4.37
2023-03-15T01:17:42.189Z,4.37
2023-03-15T01:18:42.188Z,4.29
2023-03-15T01:19:42.202Z,4.29
2023-03-15T01:20:42.237Z,4.27
2023-03-15T01:21:42.240Z,4.16
2023-03-15T01:22:42.258Z,4.11
2023-03-15T01:23:42.282Z,4.06
2023-03-15T01:24:42.295Z,3.91
2023-03-15T01:25:42.320Z,3.91
2023-03-15T01:26:42.331Z,3.96
2023-03-15T01:27:42.347Z,3.80
2023-03-15T01:28:42.369Z,3.79
2023-03-15T01:29:42.385Z,3.76
2023-03-15T01:30:42.404Z,3.69
2023-03-15T01:31:42.468Z,3.75
2023-03-15T01:32:42.551Z,3.72
2023-03-15T01:33:42.459Z,3.69
2023-03-15T01:34:42.477Z,3.60
2023-03-15T01:35:42.541Z,3.61
2023-03-15T01:36:42.510Z,3.61
2023-03-15T01:37:42.533Z,3.51
2023-03-15T01:38:42.545Z,3.50
2023-03-15T01:39:42.608Z,3.51
2023-03-15T01:40:42.585Z,3.51
2023-03-15T01:41:42.598Z,3.47
2023-03-15T01:42:42.613Z,3.39
2023-03-15T01:43:42.633Z,3.43
2023-03-15T01:44:42.649Z,3.51
2023-03-15T01:45:42.668Z,3.39
2023-03-15T01:46:42.715Z,3.31
2023-03-15T01:47:42.702Z,3.32
2023-03-15T01:48:42.720Z,3.28
2023-03-15T01:49:42.738Z,3.26
2023-03-15T01:50:42.756Z,3.14
2023-03-15T01:51:42.772Z,3.21
2023-03-15T01:52:42.796Z,3.08
2023-03-15T01:53:42.809Z,3.13
2023-03-15T01:54:42.832Z,3.20
2023-03-15T01:55:42.844Z,3.13
2023-03-15T01:56:42.865Z,3.05
2023-03-15T01:57:42.877Z,3.11
2023-03-15T01:58:42.905Z,3.14
2023-03-15T01:59:42.914Z,3.15
2023-03-15T02:00:42.955Z,3.13
2023-03-15T02:01:42.955Z,3.17
2023-03-15T02:02:42.969Z,3.08
2023-03-15T02:03:42.993Z,3.13
2023-03-15T02:04:43.005Z,3.18
2023-03-15T02:05:43.018Z,3.11
2023-03-15T02:06:43.055Z,3.05
2023-03-15T02:07:43.049Z,3.02
2023-03-15T02:08:43.072Z,3.03
2023-03-15T02:09:43.100Z,3.10
2023-03-15T02:10:43.107Z,3.00
2023-03-15T02:11:43.170Z,3.08
2023-03-15T02:12:43.147Z,3.00
2023-03-15T02:13:43.159Z,3.10
2023-03-15T02:14:43.179Z,3.06
2023-03-15T02:15:43.210Z,3.02
2023-03-15T02:16:43.332Z,3.05
2023-03-15T02:17:43.229Z,3.06
2023-03-15T02:18:43.264Z,3.00
2023-03-15T02:19:43.286Z,2.90
2023-03-15T02:20:43.289Z,2.90
2023-03-15T02:21:43.310Z,2.97
2023-03-15T02:22:43.323Z,2.96
2023-03-15T02:23:43.337Z,3.00
2023-03-15T02:24:43.354Z,2.93
2023-03-15T02:25:43.371Z,3.05
2023-03-15T02:26:43.388Z,2.90
2023-03-15T02:27:43.406Z,3.10
2023-03-15T02:28:43.420Z,3.06
2023-03-15T02:29:43.442Z,3.06
2023-03-15T02:30:43.467Z,2.97
2023-03-15T02:31:43.547Z,3.06
2023-03-15T02:32:43.530Z,3.06
2023-03-15T02:33:43.512Z,3.02
2023-03-15T02:34:43.537Z,2.99
2023-03-15T02:35:43.598Z,3.05
2023-03-15T02:36:43.570Z,3.11
2023-03-15T02:37:43.581Z,3.00
2023-03-15T02:38:43.605Z,3.03
2023-03-15T02:39:43.615Z,3.10
2023-03-15T02:40:43.639Z,3.03
2023-03-15T02:41:43.650Z,3.13
2023-03-15T02:42:43.669Z,3.15
2023-03-15T02:43:43.689Z,3.21
2023-03-15T02:44:43.716Z,3.11
2023-03-15T02:45:43.789Z,3.15
2023-03-15T02:46:43.739Z,3.15
2023-03-15T02:47:43.754Z,3.14
2023-03-15T02:48:43.775Z,3.18
2023-03-15T02:49:43.818Z,3.20
2023-03-15T02:50:43.813Z,3.15
2023-03-15T02:51:43.829Z,3.10
2023-03-15T02:52:43.848Z,3.14
2023-03-15T02:53:43.864Z,3.17
2023-03-15T02:54:43.936Z,3.18
2023-03-15T02:55:43.911Z,3.11
2023-03-15T02:56:43.925Z,3.10
2023-03-15T02:57:43.935Z,3.18
2023-03-15T02:58:43.952Z,3.20
2023-03-15T02:59:43.972Z,3.20
2023-03-15T03:00:44.063Z,3.18
2023-03-15T03:01:44.006Z,3.14
2023-03-15T03:02:44.092Z,3.21
2023-03-15T03:03:44.043Z,3.18
2023-03-15T03:04:44.064Z,3.17
2023-03-15T03:05:44.078Z,3.20
2023-03-15T03:06:44.250Z,3.23
2023-03-15T03:07:44.129Z,3.14
2023-03-15T03:08:44.129Z,3.17
2023-03-15T03:09:44.151Z,3.31
2023-03-15T03:10:44.165Z,3.20
2023-03-15T03:11:44.183Z,3.13
2023-03-15T03:12:44.212Z,3.15
2023-03-15T03:13:44.234Z,3.14
2023-03-15T03:14:44.236Z,3.15
2023-03-15T03:15:45.326Z,3.10
2023-03-15T03:16:44.304Z,3.17
2023-03-15T03:17:44.288Z,3.21
2023-03-15T03:18:44.310Z,3.20
2023-03-15T03:19:44.322Z,3.21
2023-03-15T03:20:44.340Z,3.15
2023-03-15T03:21:44.400Z,3.18
2023-03-15T03:22:44.372Z,3.11
2023-03-15T03:23:44.386Z,3.13
2023-03-15T03:24:44.406Z,3.17
2023-03-15T03:25:44.429Z,3.14
2023-03-15T03:26:44.437Z,3.15
2023-03-15T03:27:44.454Z,3.15
2023-03-15T03:28:44.470Z,3.15
2023-03-15T03:29:44.489Z,3.24
2023-03-15T03:30:44.529Z,3.17
2023-03-15T03:31:44.592Z,3.08
2023-03-15T03:32:44.568Z,3.23
2023-03-15T03:33:44.559Z,3.10
2023-03-15T03:34:44.576Z,3.17
2023-03-15T03:35:44.637Z,3.18
2023-03-15T03:36:44.612Z,3.15
2023-03-15T03:37:44.630Z,3.14
2023-03-15T03:38:44.646Z,3.17
2023-03-15T03:39:44.661Z,3.17
2023-03-15T03:40:44.680Z,3.17
2023-03-15T03:41:44.697Z,3.17
2023-03-15T03:42:44.712Z,3.20
2023-03-15T03:43:44.738Z,3.15
2023-03-15T03:44:44.789Z,3.28
2023-03-15T03:45:44.789Z,3.26
2023-03-15T03:46:44.791Z,3.21
2023-03-15T03:47:44.802Z,3.26
2023-03-15T03:48:44.823Z,3.26
2023-03-15T03:49:44.842Z,3.15
2023-03-15T03:50:44.862Z,3.26
2023-03-15T03:51:44.871Z,3.31
2023-03-15T03:52:44.885Z,3.28
2023-03-15T03:53:44.905Z,3.31
2023-03-15T03:54:44.920Z,3.32
2023-03-15T03:55:44.939Z,3.35
2023-03-15T03:56:44.955Z,3.26
2023-03-15T03:57:44.978Z,3.24
2023-03-15T03:58:44.993Z,3.26
2023-03-15T03:59:45.008Z,3.36
2023-03-15T04:00:45.025Z,3.32
2023-03-15T04:01:45.043Z,3.40
2023-03-15T04:02:45.109Z,3.31
2023-03-15T04:03:45.081Z,3.40
2023-03-15T04:04:45.166Z,3.28
2023-03-15T04:05:45.119Z,3.29
2023-03-15T04:06:45.131Z,3.31
2023-03-15T04:07:45.145Z,3.43
2023-03-15T04:08:45.173Z,3.29
2023-03-15T04:09:45.181Z,3.39
2023-03-15T04:10:45.200Z,3.32
2023-03-15T04:11:45.222Z,3.36
2023-03-15T04:12:45.323Z,3.48
2023-03-15T04:13:45.253Z,3.35
2023-03-15T04:14:45.272Z,3.36
2023-03-15T04:15:45.320Z,3.40
2023-03-15T04:16:45.307Z,3.47
2023-03-15T04:17:45.324Z,3.40
2023-03-15T04:18:45.336Z,3.42
2023-03-15T04:19:45.356Z,3.39
2023-03-15T04:20:45.373Z,3.42
2023-03-15T04:21:45.397Z,3.40
2023-03-15T04:22:45.409Z,3.43
2023-03-15T04:23:45.433Z,3.42
2023-03-15T04:24:45.445Z,3.45
2023-03-15T04:25:45.462Z,3.43
2023-03-15T04:26:45.488Z,3.42
2023-03-15T04:27:45.500Z,3.40
2023-03-15T04:28:45.532Z,3.45
2023-03-15T04:29:45.534Z,3.42
2023-03-15T04:30:45.560Z,3.28
2023-03-15T04:31:45.595Z,3.42
2023-03-15T04:32:45.615Z,3.43
2023-03-15T04:33:45.608Z,3.48
2023-03-15T04:34:45.627Z,3.36
2023-03-15T04:35:45.784Z,3.47
2023-03-15T04:36:45.679Z,3.51
2023-03-15T04:37:45.705Z,3.47
2023-03-15T04:38:45.699Z,3.51
2023-03-15T04:39:45.726Z,3.51
2023-03-15T04:40:45.731Z,3.40
2023-03-15T04:41:45.748Z,3.48
2023-03-15T04:42:45.774Z,3.55
2023-03-15T04:43:45.783Z,3.47
2023-03-15T04:44:45.806Z,3.58
2023-03-15T04:45:45.819Z,3.50
2023-03-15T04:46:45.884Z,3.55
2023-03-15T04:47:45.855Z,3.51
2023-03-15T04:48:45.873Z,3.40
2023-03-15T04:49:45.892Z,3.50
2023-03-15T04:50:45.926Z,3.40
2023-03-15T04:51:45.926Z,3.42
2023-03-15T04:52:45.948Z,3.43
2023-03-15T04:53:45.962Z,3.39
2023-03-15T04:54:45.979Z,3.42
2023-03-15T04:55:45.994Z,3.45
2023-03-15T04:56:46.013Z,3.33
2023-03-15T04:57:46.046Z,3.33
2023-03-15T04:58:46.081Z,3.42
2023-03-15T04:59:46.069Z,3.33
2023-03-15T05:00:46.171Z,3.45
2023-03-15T05:01:46.202Z,3.40
2023-03-15T05:02:46.136Z,3.54
2023-03-15T05:03:46.136Z,3.45
2023-03-15T05:04:46.152Z,3.45
2023-03-15T05:05:46.172Z,3.42
2023-03-15T05:06:46.189Z,3.26
2023-03-15T05:07:46.207Z,3.24
2023-03-15T05:08:46.220Z,3.28
2023-03-15T05:09:46.269Z,3.21
2023-03-15T05:10:46.256Z,3.24
2023-03-15T05:11:46.292Z,3.21
2023-03-15T05:12:46.328Z,3.17
2023-03-15T05:13:46.317Z,3.13
2023-03-15T05:14:46.384Z,3.06
2023-03-15T05:15:46.350Z,3.05
2023-03-15T05:16:46.357Z,3.05
2023-03-15T05:17:46.410Z,3.03
2023-03-15T05:18:46.412Z,3.03
2023-03-15T05:19:46.418Z,3.03
2023-03-15T05:20:46.428Z,3.02
2023-03-15T05:21:46.462Z,3.02
2023-03-15T05:22:46.472Z,2.95
2023-03-15T05:23:46.548Z,2.95
2023-03-15T05:24:46.498Z,2.97
2023-03-15T05:25:46.513Z,2.99
2023-03-15T05:26:46.542Z,2.93
2023-03-15T05:27:46.555Z,2.90
2023-03-15T05:28:46.570Z,2.99
2023-03-15T05:29:46.596Z,2.96
2023-03-15T05:30:46.615Z,2.96
2023-03-15T05:31:46.713Z,2.99
2023-03-15T05:32:46.672Z,2.85
2023-03-15T05:33:46.661Z,2.96
2023-03-15T05:34:46.672Z,2.97
2023-03-15T05:35:46.719Z,2.96
2023-03-15T05:36:46.704Z,2.85
2023-03-15T05:37:46.719Z,2.84
2023-03-15T05:38:46.736Z,2.89
2023-03-15T05:39:46.804Z,2.90
2023-03-15T05:40:46.772Z,2.89
2023-03-15T05:41:46.785Z,2.89
2023-03-15T05:42:46.803Z,2.93
2023-03-15T05:43:46.822Z,2.93
2023-03-15T05:44:46.840Z,2.87
2023-03-15T05:45:46.933Z,2.93
2023-03-15T05:46:46.878Z,2.97
2023-03-15T05:47:46.890Z,2.92
2023-03-15T05:48:46.903Z,3.05
2023-03-15T05:49:46.924Z,3.05
2023-03-15T05:50:46.939Z,3.06
2023-03-15T05:51:46.966Z,3.08
2023-03-15T05:52:46.977Z,3.13
2023-03-15T05:53:46.990Z,3.06
2023-03-15T05:54:47.006Z,3.10
2023-03-15T05:55:47.072Z,3.06
2023-03-15T05:56:47.051Z,3.15
2023-03-15T05:57:47.057Z,3.15
2023-03-15T05:58:47.076Z,3.05
2023-03-15T05:59:47.098Z,3.10
2023-03-15T06:00:47.107Z,3.11
2023-03-15T06:01:47.128Z,3.11
2023-03-15T06:02:47.140Z,3.17
2023-03-15T06:03:47.240Z,3.18
2023-03-15T06:04:47.171Z,3.14
2023-03-15T06:05:47.224Z,3.18
2023-03-15T06:06:47.210Z,3.21
2023-03-15T06:07:47.226Z,3.31
2023-03-15T06:08:47.255Z,3.23
2023-03-15T06:09:47.272Z,3.21
2023-03-15T06:10:47.276Z,3.26
2023-03-15T06:11:47.293Z,3.31
2023-03-15T06:12:47.355Z,3.24
2023-03-15T06:13:47.331Z,3.33
2023-03-15T06:14:47.348Z,3.42
2023-03-15T06:15:47.362Z,3.43
2023-03-15T06:16:47.442Z,3.39
2023-03-15T06:17:47.399Z,3.43
2023-03-15T06:18:47.489Z,3.39
2023-03-15T06:19:47.446Z,3.48
2023-03-15T06:20:47.451Z,3.48
2023-03-15T06:21:47.469Z,3.60
2023-03-15T06:22:47.489Z,3.58
2023-03-15T06:23:47.503Z,3.65
2023-03-15T06:24:47.521Z,3.61
2023-03-15T06:25:47.549Z,3.65
2023-03-15T06:26:47.557Z,3.58
2023-03-15T06:27:47.578Z,3.68
2023-03-15T06:28:47.591Z,3.72
2023-03-15T06:29:47.608Z,3.70
2023-03-15T06:30:47.662Z,3.80
2023-03-15T06:31:47.643Z,3.75
2023-03-15T06:32:47.751Z,3.79
2023-03-15T06:33:47.680Z,3.94
2023-03-15T06:34:47.736Z,3.87
2023-03-15T06:35:47.781Z,3.88
2023-03-15T06:36:47.732Z,3.87
2023-03-15T06:37:47.755Z,3.86
2023-03-15T06:38:47.769Z,3.98
2023-03-15T06:39:47.784Z,3.96
2023-03-15T06:40:47.803Z,3.91
2023-03-15T06:41:47.831Z,4.06
2023-03-15T06:42:47.840Z,4.12
2023-03-15T06:43:47.857Z,4.12
2023-03-15T06:44:49.623Z,4.14
2023-03-15T06:45:47.926Z,4.24
2023-03-15T06:46:47.913Z,4.41
2023-03-15T06:47:47.931Z,4.51
2023-03-15T06:48:47.950Z,4.66
2023-03-15T06:49:47.967Z,4.66
2023-03-15T06:50:48.207Z,4.80
2023-03-15T06:51:48.006Z,4.82
2023-03-15T06:52:48.022Z,4.89
2023-03-15T06:53:48.042Z,4.89
2023-03-15T06:54:48.055Z,4.97
2023-03-15T06:55:48.089Z,4.99
2023-03-15T06:56:48.102Z,4.99
2023-03-15T06:57:48.127Z,4.91
2023-03-15T06:58:48.140Z,4.84
2023-03-15T06:59:48.169Z,4.80
2023-03-15T07:00:48.170Z,4.78
2023-03-15T07:01:48.234Z,4.91
2023-03-15T07:02:48.293Z,4.94
2023-03-15T07:03:48.233Z,4.91
2023-03-15T07:04:48.246Z,4.99
2023-03-15T07:05:48.269Z,5.00
2023-03-15T07:06:48.292Z,5.03
2023-03-15T07:07:48.304Z,4.99
2023-03-15T07:08:48.323Z,4.96
2023-03-15T07:09:48.341Z,5.02
2023-03-15T07:10:48.365Z,5.04
2023-03-15T07:11:48.380Z,5.09
2023-03-15T07:12:48.408Z,5.03
2023-03-15T07:13:48.439Z,5.06
2023-03-15T07:14:48.442Z,5.07
2023-03-15T07:15:48.463Z,5.09
2023-03-15T07:16:48.474Z,5.10
2023-03-15T07:17:48.515Z,5.15
2023-03-15T07:18:48.518Z,5.07
2023-03-15T07:19:56.193Z,5.07
2023-03-15T07:20:48.552Z,5.10
2023-03-15T07:21:48.575Z,5.10
2023-03-15T07:22:48.589Z,5.09
2023-03-15T07:23:48.613Z,5.10
2023-03-15T07:24:48.629Z,5.13
2023-03-15T07:25:54.996Z,5.15
2023-03-15T07:26:48.667Z,5.24
2023-03-15T07:27:48.686Z,5.18
2023-03-15T07:28:48.705Z,5.28
2023-03-15T07:29:48.773Z,5.30
2023-03-15T07:30:48.743Z,5.39
2023-03-15T07:31:48.766Z,5.31
2023-03-15T07:32:49.055Z,5.28
2023-03-15T07:33:48.805Z,5.38
2023-03-15T07:34:48.820Z,5.42
2023-03-15T07:35:48.852Z,5.38
2023-03-15T07:36:48.859Z,5.43
2023-03-15T07:37:48.878Z,5.45
2023-03-15T07:38:48.903Z,5.48
2023-03-15T07:39:48.913Z,5.38
2023-03-15T07:40:48.937Z,5.46
2023-03-15T07:41:48.953Z,5.35
2023-03-15T07:42:48.975Z,5.38
2023-03-15T07:43:49.009Z,5.46
2023-03-15T07:44:49.009Z,5.36
2023-03-15T07:45:49.029Z,5.33
2023-03-15T07:46:49.092Z,5.39
2023-03-15T07:47:49.073Z,5.38
2023-03-15T07:48:49.087Z,5.36
2023-03-15T07:49:49.109Z,5.40
2023-03-15T07:50:49.130Z,5.35
2023-03-15T07:51:49.144Z,5.43
2023-03-15T07:52:49.166Z,5.46
2023-03-15T07:53:49.185Z,5.35
2023-03-15T07:54:49.203Z,5.42
2023-03-15T07:55:49.241Z,5.39
2023-03-15T07:56:49.240Z,5.39
2023-03-15T07:57:50.722Z,5.46
2023-03-15T07:58:49.280Z,5.28
2023-03-15T07:59:49.294Z,5.30
2023-03-15T08:00:49.322Z,5.25
2023-03-15T08:01:49.373Z,5.28
2023-03-15T08:02:49.435Z,5.31
2023-03-15T08:03:49.374Z,5.31
2023-03-15T08:04:49.399Z,5.31
2023-03-15T08:05:49.417Z,5.38
2023-03-15T08:06:49.435Z,5.36
2023-03-15T08:07:49.452Z,5.35
2023-03-15T08:08:49.475Z,5.22
2023-03-15T08:09:49.491Z,5.20
2023-03-15T08:10:49.512Z,5.24
2023-03-15T08:11:49.561Z,5.27
2023-03-15T08:12:49.556Z,5.30
2023-03-15T08:13:49.576Z,5.39
2023-03-15T08:14:49.588Z,5.57
2023-03-15T08:15:49.609Z,5.71
2023-03-15T08:16:49.687Z,5.72
2023-03-15T08:17:49.647Z,5.65
2023-03-15T08:18:49.666Z,5.68
2023-03-15T08:19:49.684Z,5.68
2023-03-15T08:20:49.704Z,5.63
2023-03-15T08:21:49.728Z,5.63
2023-03-15T08:22:49.747Z,5.57
2023-03-15T08:23:49.760Z,5.64
2023-03-15T08:24:49.793Z,5.68
2023-03-15T08:25:49.819Z,5.81
2023-03-15T08:26:49.827Z,5.78
2023-03-15T08:27:49.960Z,5.96
2023-03-15T08:28:49.868Z,5.99
2023-03-15T08:29:51.127Z,6.00
2023-03-15T08:30:49.905Z,6.11
2023-03-15T08:31:50.021Z,5.91
2023-03-15T08:32:49.956Z,5.90
2023-03-15T08:33:49.965Z,5.79
2023-03-15T08:34:49.981Z,5.81
2023-03-15T08:35:50.091Z,5.91
2023-03-15T08:36:50.062Z,5.99
2023-03-15T08:37:50.115Z,6.12
2023-03-15T08:38:50.060Z,6.00
2023-03-15T08:39:50.075Z,6.01
2023-03-15T08:40:50.097Z,6.12
2023-03-15T08:41:50.120Z,6.15
2023-03-15T08:42:50.138Z,6.08
2023-03-15T08:43:50.160Z,6.12
2023-03-15T08:44:50.178Z,6.00
2023-03-15T08:46:01.165Z,5.94
2023-03-15T08:46:50.279Z,5.96
2023-03-15T08:47:50.240Z,6.03
2023-03-15T08:48:50.266Z,5.99
2023-03-15T08:49:50.275Z,5.91
2023-03-15T08:50:50.296Z,5.99
2023-03-15T08:51:50.316Z,5.96
2023-03-15T08:52:50.334Z,5.99
2023-03-15T08:53:50.353Z,6.19
2023-03-15T08:54:50.373Z,6.22
2023-03-15T08:55:50.397Z,6.18
2023-03-15T08:56:50.412Z,6.30
2023-03-15T08:57:50.433Z,6.18
2023-03-15T08:58:50.455Z,6.22
2023-03-15T08:59:51.473Z,6.18
2023-03-15T09:00:50.497Z,6.19
2023-03-15T09:01:50.542Z,6.17
2023-03-15T09:02:50.531Z,6.31
2023-03-15T09:03:50.550Z,6.19
2023-03-15T09:04:52.457Z,6.14
2023-03-15T09:05:50.585Z,6.14
2023-03-15T09:06:50.611Z,6.01
2023-03-15T09:07:50.640Z,6.03
2023-03-15T09:08:50.652Z,6.09
2023-03-15T09:09:50.687Z,6.09
2023-03-15T09:10:50.689Z,6.03
2023-03-15T09:11:50.721Z,6.04
2023-03-15T09:12:50.728Z,6.12
2023-03-15T09:13:50.750Z,6.08
2023-03-15T09:14:50.767Z,6.12
2023-03-15T09:15:50.786Z,6.12
2023-03-15T09:16:50.922Z,6.19
2023-03-15T09:17:50.860Z,6.21
2023-03-15T09:18:50.851Z,6.31
2023-03-15T09:19:50.873Z,6.30
2023-03-15T09:20:50.887Z,6.31
2023-03-15T09:21:50.907Z,6.30
2023-03-15T09:22:50.929Z,6.28
2023-03-15T09:23:50.952Z,6.38
2023-03-15T09:24:51.898Z,6.43
2023-03-15T09:25:50.988Z,6.54
2023-03-15T09:26:51.014Z,6.43
2023-03-15T09:27:51.025Z,6.48
2023-03-15T09:28:51.048Z,6.67
2023-03-15T09:29:51.067Z,6.80
2023-03-15T09:30:51.117Z,6.95
2023-03-15T09:31:51.108Z,6.99
2023-03-15T09:32:51.197Z,6.84
2023-03-15T09:33:51.147Z,6.84
2023-03-15T09:34:51.170Z,6.94
2023-03-15T09:35:51.208Z,6.74
2023-03-15T09:36:51.213Z,6.80
2023-03-15T09:37:51.248Z,6.99
2023-03-15T09:38:51.258Z,6.97
2023-03-15T09:39:51.276Z,6.99
2023-03-15T09:40:51.297Z,7.06
2023-03-15T09:41:51.309Z,7.15
2023-03-15T09:42:51.339Z,7.24
2023-03-15T09:43:51.355Z,7.34
2023-03-15T09:44:51.370Z,7.21
2023-03-15T09:45:51.396Z,7.23
2023-03-15T09:46:51.511Z,7.25
2023-03-15T09:47:51.431Z,7.31
2023-03-15T09:48:51.460Z,7.39
2023-03-15T09:49:51.479Z,7.37
2023-03-15T09:50:51.532Z,7.31
2023-03-15T09:51:51.523Z,7.52
2023-03-15T09:52:51.540Z,7.64
2023-03-15T09:53:51.558Z,7.79
2023-03-15T09:54:51.574Z,7.83
2023-03-15T09:55:51.646Z,7.79
2023-03-15T09:56:51.624Z,7.68
2023-03-15T09:57:51.644Z,7.67
2023-03-15T09:58:51.658Z,7.79
2023-03-15T09:59:51.681Z,7.75
2023-03-15T10:00:51.699Z,7.79
2023-03-15T10:01:51.753Z,7.71
2023-03-15T10:02:51.740Z,7.79
2023-03-15T10:03:51.801Z,7.75
2023-03-15T10:04:51.781Z,7.80
2023-03-15T10:05:51.848Z,7.83
2023-03-15T10:06:51.832Z,7.97
2023-03-15T10:07:51.843Z,8.08
2023-03-15T10:08:51.863Z,8.20
2023-03-15T10:09:51.887Z,8.33
2023-03-15T10:10:51.905Z,8.48
2023-03-15T10:11:51.926Z,8.62
2023-03-15T10:12:51.951Z,8.65
2023-03-15T10:13:51.979Z,8.74
2023-03-15T10:14:51.991Z,8.84
2023-03-15T10:15:52.069Z,8.89
2023-03-15T10:16:52.058Z,9.08
2023-03-15T10:17:52.056Z,9.15
2023-03-15T10:18:52.074Z,9.18
2023-03-15T10:19:52.106Z,9.29
2023-03-15T10:20:52.116Z,9.31
2023-03-15T10:21:52.141Z,9.47
2023-03-15T10:22:52.159Z,9.50
2023-03-15T10:23:52.180Z,9.51
2023-03-15T10:24:52.207Z,9.29
2023-03-15T10:25:52.224Z,9.14
2023-03-15T10:26:52.342Z,9.01
2023-03-15T10:27:52.266Z,8.94
2023-03-15T10:28:52.284Z,8.81
2023-03-15T10:29:52.323Z,8.70
2023-03-15T10:30:52.386Z,8.52
2023-03-15T10:31:52.418Z,8.40
2023-03-15T10:32:52.438Z,8.36
2023-03-15T10:33:52.394Z,8.28
2023-03-15T10:34:52.411Z,8.29
2023-03-15T10:35:58.387Z,8.22
2023-03-15T10:36:52.455Z,8.22
2023-03-15T10:37:52.472Z,8.33
2023-03-15T10:38:52.494Z,8.37
2023-03-15T10:39:52.509Z,8.22
2023-03-15T10:40:52.541Z,8.00
2023-03-15T10:41:52.570Z,7.97
2023-03-15T10:42:52.575Z,8.01
2023-03-15T10:43:52.608Z,8.02
2023-03-15T10:44:52.618Z,8.08
2023-03-15T10:45:53.253Z,8.04
2023-03-15T10:46:52.674Z,8.01
2023-03-15T10:48:00.382Z,7.98
2023-03-15T10:48:52.706Z,7.98
2023-03-15T10:49:52.720Z,8.11
2023-03-15T10:50:52.742Z,8.22
2023-03-15T10:51:52.760Z,8.34
2023-03-15T10:52:52.785Z,8.48
2023-03-15T10:53:52.803Z,8.59
2023-03-15T10:54:58.632Z,8.66
2023-03-15T10:55:52.844Z,8.65
2023-03-15T10:56:52.867Z,8.74
2023-03-15T10:57:52.885Z,8.77
2023-03-15T10:59:09.513Z,8.89
2023-03-15T10:59:52.941Z,9.02
2023-03-15T11:00:52.970Z,9.11
2023-03-15T11:01:53.076Z,9.15
2023-03-15T11:02:53.018Z,9.11
2023-03-15T11:03:53.011Z,8.99
2023-03-15T11:04:53.033Z,8.91
2023-03-15T11:05:53.057Z,8.86
2023-03-15T11:06:53.079Z,8.96
2023-03-15T11:07:53.096Z,8.76
2023-03-15T11:08:53.119Z,8.96
2023-03-15T11:09:53.141Z,9.05
2023-03-15T11:10:53.162Z,9.29
2023-03-15T11:11:53.179Z,9.28
2023-03-15T11:12:53.203Z,9.42
2023-03-15T11:13:53.225Z,9.43
2023-03-15T11:14:53.247Z,9.43
2023-03-15T11:15:53.291Z,9.42
2023-03-15T11:16:53.295Z,9.39
2023-03-15T11:17:53.310Z,9.36
2023-03-15T11:18:53.337Z,9.21
2023-03-15T11:19:53.354Z,9.31
2023-03-15T11:20:53.376Z,9.38
2023-03-15T11:21:53.396Z,9.29
2023-03-15T11:22:53.422Z,9.38
2023-03-15T11:23:53.443Z,9.51
2023-03-15T11:24:53.487Z,9.51
2023-03-15T11:25:53.490Z,9.79
2023-03-15T11:26:53.507Z,9.83
2023-03-15T11:27:53.541Z,9.93
2023-03-15T11:28:53.553Z,10.04
2023-03-15T11:29:53.569Z,10.07
2023-03-15T11:30:53.606Z,10.22
2023-03-15T11:31:53.741Z,10.01
2023-03-15T11:32:53.701Z,9.99
2023-03-15T11:33:53.655Z,9.91
2023-03-15T11:34:53.689Z,9.96
2023-03-15T11:35:53.736Z,9.90
2023-03-15T11:37:07.238Z,9.83
2023-03-15T11:37:55.197Z,9.86
2023-03-15T11:38:53.767Z,9.74
2023-03-15T11:40:01.740Z,9.78
2023-03-15T11:40:53.812Z,9.75
2023-03-15T11:41:53.841Z,9.78
2023-03-15T11:42:53.856Z,9.79
2023-03-15T11:43:53.879Z,9.61
2023-03-15T11:44:53.898Z,9.53
2023-03-15T11:45:53.975Z,9.32
2023-03-15T11:46:53.948Z,9.21
2023-03-15T11:47:53.987Z,9.24
2023-03-15T11:48:53.985Z,9.39
2023-03-15T11:49:54.010Z,9.48
2023-03-15T11:50:54.032Z,9.48
2023-03-15T11:51:54.057Z,9.57
2023-03-15T11:52:54.070Z,9.60
2023-03-15T11:53:54.093Z,9.54
2023-03-15T11:54:54.116Z,9.61
2023-03-15T11:55:54.140Z,9.61
2023-03-15T11:56:54.159Z,9.68
2023-03-15T11:57:54.187Z,9.69
2023-03-15T11:58:54.203Z,9.61
2023-03-15T11:59:54.241Z,9.60
2023-03-15T12:00:54.244Z,9.56
2023-03-15T12:01:54.343Z,9.46
2023-03-15T12:02:54.357Z,9.50
2023-03-15T12:03:54.314Z,9.57
2023-03-15T12:04:54.328Z,9.56
2023-03-15T12:05:54.352Z,9.51
2023-03-15T12:06:54.372Z,9.65
2023-03-15T12:07:54.392Z,9.66
2023-03-15T12:08:54.417Z,9.72
2023-03-15T12:09:54.437Z,9.69
2023-03-15T12:10:54.471Z,9.64
2023-03-15T12:11:54.480Z,9.74
2023-03-15T12:12:54.503Z,9.83
2023-03-15T12:13:54.526Z,9.78
2023-03-15T12:14:54.550Z,9.76
2023-03-15T12:15:54.566Z,9.66
2023-03-15T12:16:54.728Z,9.65
2023-03-15T12:17:54.624Z,9.58
2023-03-15T12:18:54.634Z,9.66
2023-03-15T12:19:54.667Z,9.50
2023-03-15T12:20:54.678Z,9.40
2023-03-15T12:21:54.701Z,9.39
2023-03-15T12:22:56.762Z,9.32
2023-03-15T12:23:54.750Z,9.21
2023-03-15T12:24:54.766Z,9.36
2023-03-15T12:25:55.594Z,9.43
2023-03-15T12:26:54.809Z,9.61
2023-03-15T12:27:54.833Z,9.54
2023-03-15T12:28:54.851Z,9.51
2023-03-15T12:29:54.871Z,9.58
2023-03-15T12:30:54.946Z,9.60
2023-03-15T12:31:54.915Z,9.53
2023-03-15T12:32:54.982Z,9.53
2023-03-15T12:33:54.959Z,9.58
2023-03-15T12:34:54.998Z,9.60
2023-03-15T12:35:55.066Z,9.60
2023-03-15T12:36:55.024Z,9.66
2023-03-15T12:37:55.044Z,9.72
2023-03-15T12:38:55.065Z,9.75
2023-03-15T12:39:55.087Z,9.83
2023-03-15T12:40:55.125Z,9.79
2023-03-15T12:41:55.130Z,9.91
2023-03-15T12:42:55.157Z,9.74
2023-03-15T12:43:55.172Z,9.81
2023-03-15T12:44:55.194Z,9.87
2023-03-15T12:45:55.275Z,9.89
2023-03-15T12:46:55.239Z,9.90
2023-03-15T12:47:55.261Z,9.94
2023-03-15T12:48:55.282Z,9.96
2023-03-15T12:49:55.309Z,10.07
2023-03-15T12:50:55.322Z,10.20
2023-03-15T12:51:57.377Z,10.33
2023-03-15T12:52:55.370Z,10.29
2023-03-15T12:53:55.397Z,10.30
2023-03-15T12:54:55.415Z,10.23
2023-03-15T12:56:02.848Z,10.26
2023-03-15T12:56:55.460Z,10.27
2023-03-15T12:57:55.491Z,10.26
2023-03-15T12:58:55.509Z,10.23
2023-03-15T12:59:55.537Z,10.27
2023-03-15T13:00:55.560Z,10.40
2023-03-15T13:01:55.577Z,10.55
2023-03-15T13:02:55.617Z,10.61
2023-03-15T13:03:55.616Z,10.66
2023-03-15T13:04:55.644Z,10.60
2023-03-15T13:06:03.403Z,10.52
2023-03-15T13:06:55.683Z,10.51
2023-03-15T13:07:55.707Z,10.29
2023-03-15T13:08:55.730Z,10.27
2023-03-15T13:09:55.752Z,10.29
2023-03-15T13:10:55.778Z,10.36
2023-03-15T13:11:55.806Z,10.41
2023-03-15T13:12:55.819Z,10.42
2023-03-15T13:13:55.841Z,10.27
2023-03-15T13:14:55.864Z,10.26
2023-03-15T13:15:55.923Z,10.33
2023-03-15T13:16:55.904Z,10.42
2023-03-15T13:17:55.930Z,10.32